Time;durP1;ratioP1;P1;durP2;ratioP2;P2;SDS_P1;SDS_P2;PMS_P1;PMS_P2;Temp;Humidity;BMP_temperature;BMP_pressure;BME280_temperature;BME280_humidity;BME280_pressure;Samples;Min_cycle;Max_cycle;Signal;HPM_P1;HPM_P2
2022/09/13 00:10:39;;;;;;;3.53;2.33;;;;;;;;;;5963944;24;20383;-81
2022/09/13 00:27:20;;;;;;;5.97;2.75;;;;;;;;;;5886583;24;20022;-80
2022/09/13 00:30:13;;;;;;;6.15;2.72;;;;;;;;;;5906541;24;20498;-82
2022/09/13 00:50:53;;;;;;;4.80;2.75;;;;;;;;;;6167215;23;20025;-81
2022/09/13 02:17:39;;;;;;;6.53;2.70;;;;;;;;;;6245828;23;20020;-81
2022/09/13 02:20:32;;;;;;;4.30;2.85;;;;;;;;;;6256740;23;20012;-84
2022/09/13 02:23:25;;;;;;;6.97;3.33;;;;;;;;;;6234831;23;20425;-82
2022/09/13 02:26:22;;;;;;;5.05;2.97;;;;;;;;;;6235590;23;20020;-82
2022/09/13 02:29:13;;;;;;;3.17;2.80;;;;;;;;;;6232801;23;20016;-82
2022/09/13 02:32:20;;;;;;;4.72;2.90;;;;;;;;;;6240678;23;20020;-86
2022/09/13 02:35:09;;;;;;;6.78;3.33;;;;;;;;;;6256974;23;20428;-84
2022/09/13 02:38:03;;;;;;;5.90;3.22;;;;;;;;;;6255556;23;20016;-84
2022/09/13 02:41:19;;;;;;;3.50;2.58;;;;;;;;;;6212903;23;20437;-84
2022/09/13 02:44:23;;;;;;;5.70;2.97;;;;;;;;;;6214463;23;20345;-83
2022/09/13 02:48:02;;;;;;;7.90;2.75;;;;;;;;;;6213564;23;20020;-83
2022/09/13 02:51:02;;;;;;;4.07;2.72;;;;;;;;;;6229592;23;20020;-83
2022/09/13 02:54:26;;;;;;;6.53;3.10;;;;;;;;;;6233839;23;20016;-83
2022/09/13 02:57:38;;;;;;;4.78;2.92;;;;;;;;;;6212752;23;20012;-83
2022/09/13 03:00:32;;;;;;;3.38;2.75;;;;;;;;;;6213358;23;20341;-83
2022/09/13 03:03:18;;;;;;;8.82;2.97;;;;;;;;;;6214897;23;20016;-83
2022/09/13 03:06:07;;;;;;;4.40;2.85;;;;;;;;;;6236289;23;20012;-85
2022/09/13 03:09:03;;;;;;;5.30;2.92;;;;;;;;;;6258045;23;20016;-83
2022/09/13 03:16:26;;;;;;;8.63;2.88;;;;;;;;;;6243257;22;20019;-84
2022/09/13 03:20:03;;;;;;;4.28;2.92;;;;;;;;;;6267642;22;20016;-83
2022/09/13 03:24:04;;;;;;;6.03;2.88;;;;;;;;;;6286072;22;20020;-83
2022/09/13 03:30:56;;;;;;;5.60;3.50;;;;;;;;;;6264644;22;20016;-83
2022/09/13 03:34:15;;;;;;;7.88;3.45;;;;;;;;;;6246314;22;20019;-82
2022/09/13 03:37:49;;;;;;;;;;;;;;;;;;;;;
2022/09/13 03:49:39;;;;;;;;;;;;;;;;;;;;;
2022/09/13 03:52:53;;;;;;;6.32;3.70;;;;;;;;;;6287684;22;20015;-82
2022/09/13 03:56:20;;;;;;;4.35;3.15;;;;;;;;;;6267006;22;20016;-83
2022/09/13 03:59:41;;;;;;;6.43;3.08;;;;;;;;;;6247262;22;20019;-83
2022/09/13 04:02:40;;;;;;;5.30;3.25;;;;;;;;;;6266515;22;20020;-83
2022/09/13 04:05:26;;;;;;;6.18;3.35;;;;;;;;;;6266572;22;20020;-81
2022/09/13 04:08:11;;;;;;;5.35;3.72;;;;;;;;;;6289311;22;20019;-82
2022/09/13 04:10:57;;;;;;;4.70;3.25;;;;;;;;;;6289057;22;20400;-82
2022/09/13 04:13:42;;;;;;;4.30;3.60;;;;;;;;;;6289327;22;20031;-82
2022/09/13 04:16:28;;;;;;;4.60;3.25;;;;;;;;;;6287489;22;20015;-82
2022/09/13 04:19:13;;;;;;;11.77;3.25;;;;;;;;;;6289464;22;20012;-83
2022/09/13 04:21:59;;;;;;;7.22;3.03;;;;;;;;;;6265925;22;20011;-87
2022/09/13 04:25:02;;;;;;;5.72;3.10;;;;;;;;;;6267559;22;20019;-82
2022/09/13 04:32:22;;;;;;;7.63;3.85;;;;;;;;;;6180191;22;20021;-82
2022/09/13 04:35:39;;;;;;;12.68;4.35;;;;;;;;;;6265729;22;20015;-81
2022/09/13 04:39:42;;;;;;;7.57;4.03;;;;;;;;;;6244918;22;20023;-82
2022/09/13 04:47:20;;;;;;;8.18;4.63;;;;;;;;;;6289100;22;20008;-83
2022/09/13 04:50:06;;;;;;;7.63;5.07;;;;;;;;;;6266509;22;20016;-82
2022/09/13 04:53:01;;;;;;;14.68;6.30;;;;;;;;;;6265571;22;20020;-82
2022/09/13 04:55:48;;;;;;;9.18;5.03;;;;;;;;;;6246053;22;20015;-83
2022/09/13 04:58:33;;;;;;;11.10;5.50;;;;;;;;;;6286547;22;20019;-83
2022/09/13 05:01:20;;;;;;;9.88;5.07;;;;;;;;;;6274407;22;20016;-84
2022/09/13 05:04:06;;;;;;;6.45;4.07;;;;;;;;;;6314694;22;20055;-82
2022/09/13 05:06:52;;;;;;;8.57;4.45;;;;;;;;;;6288670;22;20011;-82
2022/09/13 05:09:38;;;;;;;8.48;4.40;;;;;;;;;;6288955;22;20333;-82
2022/09/13 05:12:24;;;;;;;11.82;4.30;;;;;;;;;;6288285;22;20019;-82
2022/09/13 05:15:10;;;;;;;8.90;4.10;;;;;;;;;;6285849;22;20020;-82
2022/09/13 05:17:55;;;;;;;8.68;4.28;;;;;;;;;;6245379;22;20020;-83
2022/09/13 05:20:41;;;;;;;7.20;3.88;;;;;;;;;;6288539;22;20015;-82
2022/09/13 05:23:28;;;;;;;5.93;4.15;;;;;;;;;;6288281;22;20016;-82
2022/09/13 05:26:15;;;;;;;6.40;4.10;;;;;;;;;;6265243;22;20020;-82
2022/09/13 05:29:00;;;;;;;5.90;3.85;;;;;;;;;;6265200;22;20012;-82
2022/09/13 05:31:46;;;;;;;16.95;4.88;;;;;;;;;;6287720;22;20015;-82
2022/09/13 05:34:31;;;;;;;7.53;4.00;;;;;;;;;;6288861;22;20023;-82
2022/09/13 05:37:17;;;;;;;9.05;3.67;;;;;;;;;;6265937;22;20437;-82
2022/09/13 05:40:03;;;;;;;8.55;3.33;;;;;;;;;;6243859;22;20012;-82
2022/09/13 05:42:55;;;;;;;7.38;2.90;;;;;;;;;;6265241;22;20020;-83
2022/09/13 05:45:45;;;;;;;5.82;3.25;;;;;;;;;;6266250;22;20024;-83
2022/09/13 05:48:32;;;;;;;6.18;2.80;;;;;;;;;;6265073;22;20440;-81
2022/09/13 05:51:20;;;;;;;6.78;3.15;;;;;;;;;;6287118;22;20015;-82
2022/09/13 05:54:05;;;;;;;8.50;3.63;;;;;;;;;;6243909;22;20433;-82
2022/09/13 05:56:53;;;;;;;5.47;2.70;;;;;;;;;;6288239;22;20024;-82
2022/09/13 05:59:39;;;;;;;5.80;2.80;;;;;;;;;;6288289;22;20015;-83
2022/09/13 06:02:24;;;;;;;9.02;3.10;;;;;;;;;;6265255;22;20020;-82
2022/09/13 06:05:11;;;;;;;8.30;2.97;;;;;;;;;;6288124;22;20015;-82
2022/09/13 06:07:57;;;;;;;6.00;3.25;;;;;;;;;;6288158;22;20015;-82
2022/09/13 06:10:43;;;;;;;12.38;3.00;;;;;;;;;;6287513;22;20019;-82
2022/09/13 06:13:29;;;;;;;9.25;2.88;;;;;;;;;;6288902;22;20020;-82
2022/09/13 06:16:15;;;;;;;11.43;5.45;;;;;;;;;;6286291;22;20016;-82
2022/09/13 06:19:01;;;;;;;8.55;4.03;;;;;;;;;;6302857;22;20007;-82
2022/09/13 06:21:46;;;;;;;11.13;5.57;;;;;;;;;;6296290;22;20035;-83
2022/09/13 06:24:32;;;;;;;8.20;4.68;;;;;;;;;;6289736;22;20440;-81
2022/09/13 06:27:17;;;;;;;4.80;3.03;;;;;;;;;;6287535;22;20337;-81
2022/09/13 06:30:07;;;;;;;5.85;2.53;;;;;;;;;;6264178;22;20020;-81
2022/09/13 06:32:58;;;;;;;7.10;2.70;;;;;;;;;;6277186;22;20023;-81
2022/09/13 06:35:43;;;;;;;4.18;2.88;;;;;;;;;;6288811;22;20019;-82
2022/09/13 06:38:28;;;;;;;7.45;3.17;;;;;;;;;;6243322;22;20336;-82
2022/09/13 06:41:20;;;;;;;4.15;2.78;;;;;;;;;;6264820;22;20020;-82
2022/09/13 06:44:09;;;;;;;16.25;5.60;;;;;;;;;;6264677;22;20016;-81
2022/09/13 06:46:54;;;;;;;10.07;5.10;;;;;;;;;;6287276;22;20016;-81
2022/09/13 06:49:43;;;;;;;5.55;3.90;;;;;;;;;;6287690;22;20417;-82
2022/09/13 06:52:29;;;;;;;7.15;3.25;;;;;;;;;;6264627;22;20019;-83
2022/09/13 06:55:14;;;;;;;9.65;3.47;;;;;;;;;;6288115;22;20012;-83
2022/09/13 06:57:59;;;;;;;6.75;3.00;;;;;;;;;;6287403;22;20344;-83
2022/09/13 07:00:45;;;;;;;6.68;3.20;;;;;;;;;;6287422;22;20016;-82
2022/09/13 07:03:31;;;;;;;6.20;3.20;;;;;;;;;;6288052;22;20020;-83
2022/09/13 07:06:19;;;;;;;6.95;3.42;;;;;;;;;;6289360;22;20020;-82
2022/09/13 07:09:06;;;;;;;6.38;2.90;;;;;;;;;;6266531;22;20016;-82
2022/09/13 07:11:54;;;;;;;6.43;4.22;;;;;;;;;;6265752;22;20385;-82
2022/09/13 07:14:39;;;;;;;7.22;2.80;;;;;;;;;;6288417;22;20015;-81
2022/09/13 07:17:26;;;;;;;9.65;2.80;;;;;;;;;;6289266;22;20019;-81
2022/09/13 07:20:11;;;;;;;4.82;3.35;;;;;;;;;;6288473;22;20023;-80
2022/09/13 07:22:57;;;;;;;3.55;2.55;;;;;;;;;;6289452;22;20019;-80
2022/09/13 07:25:42;;;;;;;8.30;3.03;;;;;;;;;;6289062;22;20015;-82
2022/09/13 07:28:30;;;;;;;13.05;7.90;;;;;;;;;;6289289;22;20344;-81
2022/09/13 07:31:21;;;;;;;11.10;7.80;;;;;;;;;;6289821;22;20457;-80
2022/09/13 07:34:11;;;;;;;5.88;3.20;;;;;;;;;;6288988;22;20016;-79
2022/09/13 07:36:57;;;;;;;3.67;2.80;;;;;;;;;;6289586;22;20019;-79
2022/09/13 07:39:42;;;;;;;5.03;2.85;;;;;;;;;;6289064;22;20019;-79
2022/09/13 07:42:28;;;;;;;6.05;3.47;;;;;;;;;;6288529;22;20016;-76
2022/09/13 07:45:14;;;;;;;4.32;3.22;;;;;;;;;;6289498;22;20341;-81
2022/09/13 07:47:59;;;;;;;5.13;3.38;;;;;;;;;;6288519;22;20019;-83
2022/09/13 07:50:56;;;;;;;4.10;2.72;;;;;;;;;;6267422;22;20015;-81
2022/09/13 07:53:43;;;;;;;6.25;2.95;;;;;;;;;;6289995;22;20019;-81
2022/09/13 07:56:31;;;;;;;5.20;3.28;;;;;;;;;;6289021;22;20020;-82
2022/09/13 07:59:18;;;;;;;3.03;2.50;;;;;;;;;;6289414;22;20020;-82
2022/09/13 08:02:03;;;;;;;6.35;2.95;;;;;;;;;;6288406;22;20361;-80
2022/09/13 08:04:49;;;;;;;4.72;3.03;;;;;;;;;;6289891;22;20011;-82
2022/09/13 08:07:34;;;;;;;3.90;2.85;;;;;;;;;;6288426;22;20340;-80
2022/09/13 08:10:20;;;;;;;8.25;2.33;;;;;;;;;;6288669;22;20016;-78
2022/09/13 08:13:05;;;;;;;6.65;3.25;;;;;;;;;;6289264;22;20011;-76
2022/09/13 08:15:51;;;;;;;4.25;2.45;;;;;;;;;;6282789;22;20019;-81
2022/09/13 08:18:36;;;;;;;5.72;2.78;;;;;;;;;;6288763;22;20114;-81
2022/09/13 08:21:23;;;;;;;3.72;2.65;;;;;;;;;;6288747;22;20023;-83
2022/09/13 08:24:14;;;;;;;4.88;2.67;;;;;;;;;;6289403;22;20016;-82
2022/09/13 08:27:00;;;;;;;4.28;2.95;;;;;;;;;;6291661;22;20019;-82
2022/09/13 08:29:46;;;;;;;5.45;2.55;;;;;;;;;;6290040;22;20333;-81
2022/09/13 08:32:31;;;;;;;5.28;3.10;;;;;;;;;;6288821;22;20015;-82
2022/09/13 08:35:17;;;;;;;3.83;2.95;;;;;;;;;;6288983;22;20426;-81
2022/09/13 08:38:04;;;;;;;6.80;3.47;;;;;;;;;;6265463;22;20019;-81
2022/09/13 08:40:58;;;;;;;7.03;2.85;;;;;;;;;;6288431;22;20349;-81
2022/09/13 08:43:59;;;;;;;10.57;2.42;;;;;;;;;;6288679;22;20020;-83
2022/09/13 08:46:46;;;;;;;5.47;2.58;;;;;;;;;;6268104;22;20020;-82
2022/09/13 08:49:41;;;;;;;2.58;2.00;;;;;;;;;;6268049;22;20345;-82
2022/09/13 08:52:35;;;;;;;6.75;2.97;;;;;;;;;;6288429;22;20442;-83
2022/09/13 08:55:45;;;;;;;5.78;2.38;;;;;;;;;;6266134;22;20019;-82
2022/09/13 08:58:43;;;;;;;3.88;2.67;;;;;;;;;;6287912;22;20015;-83
2022/09/13 09:02:06;;;;;;;5.43;2.35;;;;;;;;;;6288094;22;20016;-82
2022/09/13 09:05:24;;;;;;;3.80;2.60;;;;;;;;;;6289347;22;20015;-81
2022/09/13 09:08:49;;;;;;;6.28;3.20;;;;;;;;;;6222592;22;20020;-83
2022/09/13 09:12:00;;;;;;;5.47;2.28;;;;;;;;;;6288923;22;20011;-82
2022/09/13 09:15:12;;;;;;;8.98;3.40;;;;;;;;;;6244295;22;20341;-80
2022/09/13 09:18:08;;;;;;;4.90;2.72;;;;;;;;;;6276031;22;20433;-81
2022/09/13 09:20:56;;;;;;;5.47;1.83;;;;;;;;;;6288197;22;20433;-80
2022/09/13 09:23:50;;;;;;;7.40;2.40;;;;;;;;;;6288316;22;20329;-81
2022/09/13 09:26:36;;;;;;;;;;;;;;;;;;6288391;22;20027;-82
2022/09/13 09:29:24;;;;;;;2.60;2.00;;;;;;;;;;6288038;22;19907;-80
2022/09/13 09:32:27;;;;;;;6.55;2.70;;;;;;;;;;6287861;22;20329;-81
2022/09/13 09:35:26;;;;;;;5.07;3.85;;;;;;;;;;6287901;22;20019;-82
2022/09/13 09:38:34;;;;;;;2.58;2.10;;;;;;;;;;6288036;22;20020;-81
2022/09/13 09:41:35;;;;;;;2.58;2.00;;;;;;;;;;6287733;22;20016;-81
2022/09/13 09:44:26;;;;;;;2.53;1.80;;;;;;;;;;6288031;22;20016;-81
2022/09/13 09:47:22;;;;;;;3.53;2.35;;;;;;;;;;6287954;22;20349;-81
2022/09/13 09:50:17;;;;;;;5.28;2.95;;;;;;;;;;6287625;22;20008;-81
2022/09/13 09:53:13;;;;;;;7.60;3.60;;;;;;;;;;6288325;22;20024;-81
2022/09/13 09:56:14;;;;;;;7.97;4.97;;;;;;;;;;6288213;22;20344;-81
2022/09/13 09:59:01;;;;;;;4.30;2.30;;;;;;;;;;6287952;22;20019;-81
2022/09/13 10:01:46;;;;;;;3.60;2.15;;;;;;;;;;6287589;22;20015;-76
2022/09/13 10:04:32;;;;;;;2.10;1.70;;;;;;;;;;6287558;22;20015;-78
2022/09/13 10:07:26;;;;;;;2.70;1.73;;;;;;;;;;6287869;22;20020;-79
2022/09/13 10:10:41;;;;;;;3.72;1.98;;;;;;;;;;6287547;22;20015;-78
2022/09/13 10:13:27;;;;;;;2.83;1.77;;;;;;;;;;6287875;22;20011;-79
2022/09/13 10:16:40;;;;;;;1.15;1.02;;;;;;;;;;6281438;22;20445;-79
2022/09/13 10:19:26;;;;;;;2.72;2.08;;;;;;;;;;6288289;22;20020;-80
2022/09/13 10:22:12;;;;;;;3.60;1.80;;;;;;;;;;6288071;22;20024;-81
2022/09/13 10:25:17;;;;;;;3.10;1.60;;;;;;;;;;6284015;22;20020;-82
2022/09/13 10:28:09;;;;;;;5.00;1.88;;;;;;;;;;6287887;22;20024;-80
2022/09/13 10:31:03;;;;;;;1.95;1.73;;;;;;;;;;6287194;22;20012;-82
2022/09/13 10:33:48;;;;;;;3.17;1.77;;;;;;;;;;6287447;22;20020;-82
2022/09/13 10:36:35;;;;;;;5.07;1.98;;;;;;;;;;6287838;22;20237;-81
2022/09/13 10:39:23;;;;;;;3.20;2.00;;;;;;;;;;6286977;22;20012;-82
2022/09/13 10:42:09;;;;;;;4.43;1.90;;;;;;;;;;6265340;22;20015;-82
2022/09/13 10:45:04;;;;;;;3.30;1.95;;;;;;;;;;6287371;22;20015;-82
2022/09/13 10:47:53;;;;;;;3.03;2.10;;;;;;;;;;6287146;22;20449;-82
2022/09/13 10:50:38;;;;;;;4.07;2.10;;;;;;;;;;6287711;22;20012;-80
2022/09/13 10:53:37;;;;;;;3.30;2.40;;;;;;;;;;6287225;22;20012;-81
2022/09/13 10:56:25;;;;;;;1.70;1.60;;;;;;;;;;6288298;22;20023;-80
2022/09/13 10:59:24;;;;;;;5.70;1.70;;;;;;;;;;6287472;22;20011;-82
2022/09/13 11:02:47;;;;;;;4.03;1.90;;;;;;;;;;6287768;22;20051;-81
2022/09/13 11:05:51;;;;;;;3.40;1.90;;;;;;;;;;6264649;22;20024;-81
2022/09/13 11:09:16;;;;;;;2.60;1.88;;;;;;;;;;6288353;22;20016;-84
2022/09/13 11:12:18;;;;;;;2.10;1.60;;;;;;;;;;6287862;22;20012;-82
2022/09/13 11:15:31;;;;;;;4.65;1.90;;;;;;;;;;6285893;22;20023;-82
2022/09/13 11:18:35;;;;;;;3.53;1.55;;;;;;;;;;6275263;22;20012;-82
2022/09/13 11:21:53;;;;;;;4.10;1.60;;;;;;;;;;6267217;22;20024;-83
2022/09/13 11:24:57;;;;;;;3.88;1.73;;;;;;;;;;6250074;22;20020;-82
2022/09/13 11:28:15;;;;;;;1.70;1.48;;;;;;;;;;6287777;22;20016;-85
2022/09/13 11:31:09;;;;;;;2.92;1.67;;;;;;;;;;6265297;22;20425;-84
2022/09/13 11:34:18;;;;;;;2.25;1.67;;;;;;;;;;6264913;22;20020;-83
2022/09/13 11:37:14;;;;;;;2.70;1.92;;;;;;;;;;6263553;22;20361;-83
2022/09/13 11:40:28;;;;;;;2.92;1.70;;;;;;;;;;6287052;22;20015;-83
2022/09/13 11:43:19;;;;;;;2.00;1.67;;;;;;;;;;6284912;22;20341;-83
2022/09/13 11:46:23;;;;;;;3.15;1.77;;;;;;;;;;6263097;22;20019;-83
2022/09/13 11:49:20;;;;;;;1.88;1.70;;;;;;;;;;6287126;22;20019;-83
2022/09/13 11:52:05;;;;;;;2.47;1.85;;;;;;;;;;6265397;22;20016;-84
2022/09/13 11:55:05;;;;;;;3.38;1.88;;;;;;;;;;6289305;22;20019;-83
2022/09/13 11:58:13;;;;;;;3.38;1.80;;;;;;;;;;6289239;22;20023;-83
2022/09/13 12:01:03;;;;;;;3.42;2.70;;;;;;;;;;6291808;22;20020;-84
2022/09/13 12:04:01;;;;;;;4.97;2.70;;;;;;;;;;6289304;22;20016;-84
2022/09/13 12:06:54;;;;;;;3.58;1.67;;;;;;;;;;6289368;22;20433;-84
2022/09/13 12:09:50;;;;;;;2.60;2.03;;;;;;;;;;6289146;22;20020;-83
2022/09/13 12:12:36;;;;;;;5.03;1.70;;;;;;;;;;6265832;22;20697;-83
2022/09/13 12:15:41;;;;;;;3.55;1.60;;;;;;;;;;6288779;22;20024;-83
2022/09/13 12:18:43;;;;;;;4.80;1.85;;;;;;;;;;6247354;22;20015;-83
2022/09/13 12:21:34;;;;;;;3.45;1.70;;;;;;;;;;6288519;22;20015;-83
2022/09/13 12:24:38;;;;;;;2.92;1.70;;;;;;;;;;6288617;22;20020;-83
2022/09/13 12:27:27;;;;;;;3.55;1.90;;;;;;;;;;6269336;22;20008;-82
2022/09/13 12:30:20;;;;;;;2.60;1.98;;;;;;;;;;6312886;22;20015;-82
2022/09/13 12:33:05;;;;;;;4.35;1.92;;;;;;;;;;6285816;22;20350;-84
2022/09/13 12:36:24;;;;;;;2.67;1.55;;;;;;;;;;6288502;22;20019;-84
2022/09/13 12:39:30;;;;;;;3.40;2.13;;;;;;;;;;6288089;22;20441;-84
2022/09/13 12:42:17;;;;;;;4.55;2.00;;;;;;;;;;6288083;22;20433;-82
2022/09/13 12:45:25;;;;;;;3.63;2.60;;;;;;;;;;6288316;22;20019;-83
2022/09/13 12:48:41;;;;;;;4.57;2.15;;;;;;;;;;6288679;22;20020;-83
2022/09/13 12:51:48;;;;;;;5.72;1.85;;;;;;;;;;6265716;22;20341;-82
2022/09/13 12:54:39;;;;;;;6.55;2.35;;;;;;;;;;6289701;22;20023;-80
2022/09/13 12:57:43;;;;;;;2.85;1.90;;;;;;;;;;6289447;22;20020;-81
2022/09/13 13:00:33;;;;;;;6.25;2.03;;;;;;;;;;6289762;22;20015;-80
2022/09/13 13:03:19;;;;;;;4.63;2.00;;;;;;;;;;6265982;22;20019;-79
2022/09/13 13:06:23;;;;;;;5.07;1.85;;;;;;;;;;6290221;22;20016;-80
2022/09/13 13:09:38;;;;;;;5.85;2.00;;;;;;;;;;6267716;22;20019;-80
2022/09/13 13:12:38;;;;;;;1.60;1.50;;;;;;;;;;6290723;22;20023;-80
2022/09/13 13:15:24;;;;;;;4.22;2.22;;;;;;;;;;6287525;22;20027;-84
2022/09/13 13:18:21;;;;;;;5.20;1.95;;;;;;;;;;6265472;22;20352;-83
2022/09/13 13:21:22;;;;;;;5.32;2.00;;;;;;;;;;6288232;22;20016;-86
2022/09/13 13:24:14;;;;;;;3.90;1.80;;;;;;;;;;6288120;22;20441;-84
2022/09/13 13:26:59;;;;;;;4.68;1.90;;;;;;;;;;6265531;22;20019;-83
2022/09/13 13:30:23;;;;;;;4.03;2.30;;;;;;;;;;6265160;22;20019;-83
2022/09/13 13:33:22;;;;;;;2.63;1.75;;;;;;;;;;6288401;22;20019;-78
2022/09/13 13:36:22;;;;;;;2.33;1.63;;;;;;;;;;6287594;22;20019;-83
2022/09/13 13:39:25;;;;;;;4.63;2.90;;;;;;;;;;6287942;22;20341;-80
2022/09/13 13:42:30;;;;;;;3.83;2.65;;;;;;;;;;6265211;22;20020;-83
2022/09/13 13:45:27;;;;;;;2.33;1.98;;;;;;;;;;6265128;22;20023;-83
2022/09/13 13:48:16;;;;;;;2.83;2.30;;;;;;;;;;6289896;22;20016;-82
2022/09/13 13:51:11;;;;;;;4.40;2.60;;;;;;;;;;6264946;22;20011;-84
2022/09/13 13:54:22;;;;;;;3.67;1.85;;;;;;;;;;6287847;22;20440;-80
2022/09/13 13:57:26;;;;;;;4.25;1.95;;;;;;;;;;6287891;22;20019;-80
2022/09/13 14:00:30;;;;;;;2.65;1.98;;;;;;;;;;6287921;22;20012;-79
2022/09/13 14:03:21;;;;;;;3.22;2.20;;;;;;;;;;6288164;22;20019;-79
2022/09/13 14:06:13;;;;;;;3.17;1.90;;;;;;;;;;6287350;22;20019;-81
2022/09/13 14:09:03;;;;;;;2.00;1.58;;;;;;;;;;6287690;22;20020;-81
2022/09/13 14:12:11;;;;;;;2.45;1.80;;;;;;;;;;6287544;22;20011;-80
2022/09/13 14:15:38;;;;;;;3.17;1.67;;;;;;;;;;6234842;22;20019;-79
2022/09/13 14:18:42;;;;;;;;;;;;;;;;;;6264925;22;20445;-79
2022/09/13 14:21:29;;;;;;;5.18;1.50;;;;;;;;;;6287997;22;19911;-80
2022/09/13 14:24:22;;;;;;;2.78;1.70;;;;;;;;;;6286732;22;20020;-80
2022/09/13 14:27:22;;;;;;;2.00;1.80;;;;;;;;;;6286591;22;20020;-80
2022/09/13 14:30:22;;;;;;;4.00;1.65;;;;;;;;;;6287044;22;20016;-79
2022/09/13 14:33:38;;;;;;;3.20;1.77;;;;;;;;;;6286868;22;20015;-78
2022/09/13 14:36:23;;;;;;;3.67;1.92;;;;;;;;;;6287546;22;20445;-79
2022/09/13 14:39:08;;;;;;;4.30;1.60;;;;;;;;;;6287404;22;20338;-79
2022/09/13 14:42:14;;;;;;;2.72;1.45;;;;;;;;;;6287529;22;20023;-79
2022/09/13 14:44:59;;;;;;;3.65;1.90;;;;;;;;;;6287411;22;20012;-78
2022/09/13 14:47:48;;;;;;;3.75;1.80;;;;;;;;;;6286911;22;20020;-79
2022/09/13 14:50:41;;;;;;;1.63;1.30;;;;;;;;;;6286914;22;20023;-78
2022/09/13 14:53:31;;;;;;;4.95;1.70;;;;;;;;;;6263927;22;20012;-78
2022/09/13 14:56:31;;;;;;;2.50;1.67;;;;;;;;;;6286857;22;20345;-80
2022/09/13 14:59:34;;;;;;;3.88;1.60;;;;;;;;;;6287280;22;20019;-80
2022/09/13 15:02:22;;;;;;;1.98;1.55;;;;;;;;;;6287172;22;20357;-80
2022/09/13 15:05:13;;;;;;;3.47;1.80;;;;;;;;;;6288228;22;20333;-79
2022/09/13 15:07:59;;;;;;;3.78;1.70;;;;;;;;;;6287753;22;20015;-80
2022/09/13 15:10:46;;;;;;;5.13;1.90;;;;;;;;;;6287377;22;20023;-80
2022/09/13 15:13:32;;;;;;;5.95;2.83;;;;;;;;;;6287300;22;20020;-78
2022/09/13 15:16:29;;;;;;;12.73;3.95;;;;;;;;;;6280576;22;20020;-78
2022/09/13 15:19:28;;;;;;;4.07;1.90;;;;;;;;;;6287068;22;20020;-79
2022/09/13 15:22:19;;;;;;;2.90;2.00;;;;;;;;;;6287217;22;20023;-81
2022/09/13 15:25:05;;;;;;;3.25;1.60;;;;;;;;;;6287967;22;20019;-80
2022/09/13 15:27:51;;;;;;;4.90;1.90;;;;;;;;;;6289045;22;20016;-79
2022/09/13 15:30:40;;;;;;;4.60;2.03;;;;;;;;;;6288921;22;20020;-80
2022/09/13 15:33:35;;;;;;;4.72;1.98;;;;;;;;;;6289389;22;20012;-80
2022/09/13 15:36:28;;;;;;;1.48;1.38;;;;;;;;;;6289868;22;20340;-80
2022/09/13 15:39:16;;;;;;;2.90;1.92;;;;;;;;;;6289414;22;20015;-80
2022/09/13 15:42:02;;;;;;;1.88;1.60;;;;;;;;;;6289567;22;20020;-81
2022/09/13 15:44:47;;;;;;;6.38;1.70;;;;;;;;;;6288608;22;20020;-84
2022/09/13 15:47:33;;;;;;;2.67;2.25;;;;;;;;;;6288369;22;20015;-84
2022/09/13 15:50:22;;;;;;;2.83;2.10;;;;;;;;;;6288976;22;20437;-84
2022/09/13 15:53:10;;;;;;;2.05;1.80;;;;;;;;;;6289090;22;20011;-83
2022/09/13 15:55:56;;;;;;;2.78;1.90;;;;;;;;;;6266508;22;20019;-87
2022/09/13 15:58:41;;;;;;;5.13;1.90;;;;;;;;;;6266193;22;20015;-84
2022/09/13 16:01:27;;;;;;;3.30;1.80;;;;;;;;;;6289254;22;20020;-84
2022/09/13 16:04:14;;;;;;;5.80;2.33;;;;;;;;;;6270753;22;20020;-83
2022/09/13 16:06:59;;;;;;;5.30;2.30;;;;;;;;;;6292864;22;20020;-83
2022/09/13 16:09:45;;;;;;;7.80;2.05;;;;;;;;;;6270083;22;20019;-84
2022/09/13 16:12:30;;;;;;;6.22;2.30;;;;;;;;;;6293278;22;20011;-84
2022/09/13 16:15:16;;;;;;;6.07;2.70;;;;;;;;;;6289180;22;20020;-84
2022/09/13 16:18:01;;;;;;;5.28;2.50;;;;;;;;;;6270345;22;20011;-84
2022/09/13 16:20:47;;;;;;;9.07;3.63;;;;;;;;;;6289737;22;20337;-83
2022/09/13 16:23:33;;;;;;;5.75;2.55;;;;;;;;;;6289549;22;20019;-83
2022/09/13 16:26:18;;;;;;;8.75;3.00;;;;;;;;;;6287837;22;20019;-83
2022/09/13 16:29:04;;;;;;;4.28;2.13;;;;;;;;;;6265927;22;20020;-85
2022/09/13 16:31:49;;;;;;;6.30;2.38;;;;;;;;;;6268173;22;20016;-83
2022/09/13 16:34:35;;;;;;;5.82;2.60;;;;;;;;;;6268679;22;20024;-83
2022/09/13 16:37:21;;;;;;;12.73;5.28;;;;;;;;;;6291802;22;20019;-84
2022/09/13 16:40:08;;;;;;;46.60;20.48;;;;;;;;;;6288468;22;20337;-85
2022/09/13 16:42:54;;;;;;;72.88;35.38;;;;;;;;;;6290221;22;20020;-83
2022/09/13 16:45:40;;;;;;;98.45;45.13;;;;;;;;;;6267209;22;20016;-80
2022/09/13 16:48:26;;;;;;;100.60;47.92;;;;;;;;;;6289412;22;20020;-81
2022/09/13 16:51:12;;;;;;;96.15;45.05;;;;;;;;;;6290728;22;20012;-81
2022/09/13 16:53:58;;;;;;;51.55;27.67;;;;;;;;;;6290386;22;20015;-83
2022/09/13 16:56:42;;;;;;;40.47;21.15;;;;;;;;;;6291721;22;20341;-79
2022/09/13 16:59:30;;;;;;;35.88;18.08;;;;;;;;;;6291376;22;20016;-80
2022/09/13 17:02:16;;;;;;;17.27;9.00;;;;;;;;;;6290881;22;20430;-80
2022/09/13 17:05:02;;;;;;;14.68;8.00;;;;;;;;;;6290830;22;20012;-79
2022/09/13 17:07:50;;;;;;;14.20;6.38;;;;;;;;;;6290716;22;20015;-80
2022/09/13 17:10:37;;;;;;;10.88;6.82;;;;;;;;;;6290378;22;20020;-79
2022/09/13 17:13:23;;;;;;;19.60;9.48;;;;;;;;;;6290707;22;20011;-80
2022/09/13 17:16:20;;;;;;;17.55;6.65;;;;;;;;;;6284424;22;20019;-79
2022/09/13 17:19:10;;;;;;;18.05;6.28;;;;;;;;;;6291788;22;20440;-80
2022/09/13 17:21:56;;;;;;;16.48;5.35;;;;;;;;;;6268971;22;20023;-79
2022/09/13 17:24:41;;;;;;;10.75;5.13;;;;;;;;;;6267917;22;20020;-79
2022/09/13 17:27:27;;;;;;;14.68;5.50;;;;;;;;;;6267623;22;20019;-78
2022/09/13 17:30:13;;;;;;;12.45;5.18;;;;;;;;;;6289476;22;20019;-77
2022/09/13 17:32:58;;;;;;;10.45;4.80;;;;;;;;;;6289685;22;20011;-77
2022/09/13 17:35:44;;;;;;;12.77;5.75;;;;;;;;;;6290080;22;20020;-79
2022/09/13 17:38:30;;;;;;;8.82;4.70;;;;;;;;;;6252952;22;20024;-82
2022/09/13 17:41:21;;;;;;;9.27;4.95;;;;;;;;;;6276279;22;20023;-78
2022/09/13 17:44:06;;;;;;;8.32;4.03;;;;;;;;;;6299151;22;20015;-79
2022/09/13 17:46:51;;;;;;;10.60;4.57;;;;;;;;;;6297600;22;20421;-80
2022/09/13 17:49:36;;;;;;;8.55;5.00;;;;;;;;;;6299225;22;20329;-78
2022/09/13 17:52:22;;;;;;;6.38;3.33;;;;;;;;;;6274822;22;20012;-81
2022/09/13 17:55:08;;;;;;;6.05;3.40;;;;;;;;;;6298372;22;20015;-79
2022/09/13 17:57:54;;;;;;;8.02;3.50;;;;;;;;;;6298966;22;20016;-79
2022/09/13 18:00:41;;;;;;;8.60;3.20;;;;;;;;;;6299598;22;20020;-79
2022/09/13 18:03:28;;;;;;;8.20;3.67;;;;;;;;;;6298497;22;20020;-79
2022/09/13 18:06:14;;;;;;;5.65;3.53;;;;;;;;;;6298463;22;20013;-79
2022/09/13 18:09:00;;;;;;;5.47;3.63;;;;;;;;;;6278248;22;20011;-78
2022/09/13 18:11:47;;;;;;;5.13;3.20;;;;;;;;;;6295777;22;20012;-79
2022/09/13 18:14:33;;;;;;;7.30;3.55;;;;;;;;;;6300933;22;20426;-82
2022/09/13 18:17:19;;;;;;;9.35;4.97;;;;;;;;;;6275945;23;20419;-81
2022/09/13 18:20:10;;;;;;;7.95;4.00;;;;;;;;;;6275498;23;20016;-81
2022/09/13 18:23:02;;;;;;;6.68;4.38;;;;;;;;;;6276522;23;20020;-81
2022/09/13 18:25:57;;;;;;;9.52;5.05;;;;;;;;;;6273419;23;20016;-81
2022/09/13 18:28:45;;;;;;;11.80;5.22;;;;;;;;;;6270371;23;20020;-80
2022/09/13 18:31:32;;;;;;;8.02;4.53;;;;;;;;;;6247714;23;20012;-82
2022/09/13 18:34:18;;;;;;;5.22;3.97;;;;;;;;;;6269690;23;20012;-82
2022/09/13 18:37:06;;;;;;;7.93;4.35;;;;;;;;;;6267348;23;20023;-83
2022/09/13 18:39:52;;;;;;;7.18;4.00;;;;;;;;;;6267467;23;20012;-81
2022/09/13 18:42:38;;;;;;;7.30;4.05;;;;;;;;;;6267277;23;20016;-82
2022/09/13 18:45:28;;;;;;;6.60;4.18;;;;;;;;;;6272815;23;20016;-83
2022/09/13 18:48:20;;;;;;;5.15;3.60;;;;;;;;;;6273059;23;20337;-81
2022/09/13 18:51:11;;;;;;;8.95;4.40;;;;;;;;;;6273028;23;20020;-82
2022/09/13 18:53:58;;;;;;;7.50;4.00;;;;;;;;;;6272633;23;20016;-81
2022/09/13 18:56:45;;;;;;;8.18;4.20;;;;;;;;;;6273432;23;20016;-82
2022/09/13 18:59:32;;;;;;;7.32;4.35;;;;;;;;;;6268967;23;20016;-81
2022/09/13 19:02:18;;;;;;;9.45;4.53;;;;;;;;;;6275574;23;20020;-81
2022/09/13 19:05:04;;;;;;;6.30;4.22;;;;;;;;;;6275127;23;20012;-82
2022/09/13 19:07:55;;;;;;;7.05;4.57;;;;;;;;;;6271812;23;20020;-82
2022/09/13 19:10:40;;;;;;;6.88;4.75;;;;;;;;;;6275164;23;20012;-81
2022/09/13 19:13:30;;;;;;;8.60;4.88;;;;;;;;;;6273899;23;20016;-82
2022/09/13 19:16:18;;;;;;;6.40;4.20;;;;;;;;;;6280075;22;20023;-82
2022/09/13 19:19:08;;;;;;;6.70;3.92;;;;;;;;;;6301424;22;20019;-82
2022/09/13 19:21:54;;;;;;;6.70;3.78;;;;;;;;;;6300354;22;20019;-81
2022/09/13 19:24:45;;;;;;;5.35;3.30;;;;;;;;;;6294344;22;20020;-84
2022/09/13 19:27:30;;;;;;;8.52;4.15;;;;;;;;;;6291662;22;20020;-82
2022/09/13 19:30:16;;;;;;;8.10;5.25;;;;;;;;;;6290842;22;20023;-85
2022/09/13 19:33:01;;;;;;;8.55;5.00;;;;;;;;;;6292529;22;20011;-85
2022/09/13 19:35:47;;;;;;;7.05;4.68;;;;;;;;;;6296720;22;20024;-80
2022/09/13 19:38:33;;;;;;;9.82;4.50;;;;;;;;;;6295918;22;20016;-77
2022/09/13 19:41:25;;;;;;;5.68;3.88;;;;;;;;;;6291417;22;20019;-78
2022/09/13 19:44:12;;;;;;;6.65;3.90;;;;;;;;;;6297258;22;20012;-77
2022/09/13 19:46:59;;;;;;;7.10;4.03;;;;;;;;;;6297208;22;20437;-79
2022/09/13 19:49:48;;;;;;;5.60;3.80;;;;;;;;;;6271214;22;20015;-79